Terminal Aerodrome Forecast
Issued by NWS Louisville, KY

Home | Current Version | Previous Version | Text Only | Print | Product List | Glossary On
Versions: 1 2 3 4 5 6 7 8 9 10 11 12 13 14 15 16 17
000
FTUS43 KLMK 092327
TAFLEX
TAF
KLEX 092327Z 1000/1024 28003KT P6SM BKN029
     FM100200 23004KT P6SM SCT030
      TEMPO 1007/1011 BKN028
     FM102000 VRB04KT P6SM SCT130=

USA.gov is the U.S. government's official web portal to all federal, state and local government web resources and services.